createdAt,value
2022-08-18T00:02:06.551Z,1.40
2022-08-18T00:04:48.582Z,0.90
2022-08-18T00:07:22.807Z,1.27
2022-08-18T00:09:51.877Z,1.05
2022-08-18T00:12:24.509Z,1.52
2022-08-18T00:14:53.936Z,1.00
2022-08-18T00:17:24.743Z,1.30
2022-08-18T00:19:52.561Z,1.30
2022-08-18T00:22:22.355Z,1.58
2022-08-18T00:24:53.715Z,0.93
2022-08-18T00:27:28.291Z,1.02
2022-08-18T00:29:59.800Z,1.10
2022-08-18T00:32:33.527Z,1.20
2022-08-18T00:35:09.069Z,1.50
2022-08-18T00:37:37.313Z,1.40
2022-08-18T00:40:07.804Z,0.90
2022-08-18T00:42:45.586Z,0.95
2022-08-18T00:45:17.879Z,1.05
2022-08-18T00:47:47.431Z,1.00
2022-08-18T00:50:25.518Z,1.00
2022-08-18T00:53:00.133Z,1.10
2022-08-18T00:55:31.311Z,0.93
2022-08-18T00:58:10.153Z,1.90
2022-08-18T01:00:39.323Z,1.08
2022-08-18T01:03:15.296Z,1.65
2022-08-18T01:06:00.811Z,2.15
2022-08-18T01:08:30.319Z,0.95
2022-08-18T01:11:02.216Z,1.60
2022-08-18T01:13:33.874Z,1.63
2022-08-18T01:16:23.762Z,1.30
2022-08-18T01:19:10.845Z,1.60
2022-08-18T01:21:53.590Z,1.15
2022-08-18T01:24:42.123Z,1.52
2022-08-18T01:27:12.378Z,1.45
2022-08-18T01:29:43.497Z,1.73
2022-08-18T01:32:13.507Z,1.70
2022-08-18T01:34:41.310Z,1.33
2022-08-18T01:37:10.043Z,1.60
2022-08-18T01:41:27.544Z,1.50
2022-08-18T01:42:27.310Z,1.90
2022-08-18T01:44:55.171Z,1.85
2022-08-18T01:47:22.923Z,1.98
2022-08-18T01:49:50.718Z,1.90
2022-08-18T01:52:21.765Z,1.45
2022-08-18T01:54:53.158Z,1.15
2022-08-18T01:57:22.298Z,1.45
2022-08-18T01:59:50.236Z,1.90
2022-08-18T02:02:24.976Z,1.15
2022-08-18T02:04:57.991Z,1.30
2022-08-18T02:07:34.303Z,1.27
2022-08-18T02:10:08.030Z,1.60
2022-08-18T02:12:41.304Z,1.83
2022-08-18T02:15:11.872Z,1.52
2022-08-18T02:17:41.434Z,1.17
2022-08-18T02:20:13.224Z,1.20
2022-08-18T02:22:43.394Z,1.40
2022-08-18T02:25:15.204Z,1.42
2022-08-18T02:27:43.282Z,2.10
2022-08-18T02:30:16.133Z,1.38
2022-08-18T02:32:44.133Z,1.55
2022-08-18T02:35:12.769Z,1.83
2022-08-18T02:37:42.154Z,1.40
2022-08-18T02:40:14.906Z,1.73
2022-08-18T02:42:43.721Z,1.70
2022-08-18T02:45:12.726Z,2.00
2022-08-18T02:47:41.075Z,2.20
2022-08-18T02:50:11.808Z,2.05
2022-08-18T02:52:40.650Z,2.00
2022-08-18T02:55:10.151Z,1.60
2022-08-18T02:57:44.054Z,1.60
2022-08-18T03:00:15.858Z,1.70
2022-08-18T03:02:48.465Z,1.25
2022-08-18T03:05:17.260Z,1.83
2022-08-18T03:07:45.635Z,1.27
2022-08-18T03:10:31.373Z,1.85
2022-08-18T03:13:01.455Z,1.60
2022-08-18T03:15:29.202Z,1.40
2022-08-18T03:17:57.990Z,1.48
2022-08-18T03:20:31.070Z,1.50
2022-08-18T03:23:09.604Z,1.48
2022-08-18T03:25:44.369Z,1.42
2022-08-18T03:28:13.680Z,1.83
2022-08-18T03:30:41.974Z,1.25
2022-08-18T03:33:10.285Z,1.42
2022-08-18T03:35:38.484Z,1.73
2022-08-18T03:38:06.661Z,1.77
2022-08-18T03:40:34.815Z,1.58
2022-08-18T03:43:38.887Z,1.85
2022-08-18T03:45:56.329Z,1.38
2022-08-18T03:48:25.230Z,1.42
2022-08-18T03:50:53.015Z,1.42
2022-08-18T03:53:20.792Z,1.67
2022-08-18T03:55:48.572Z,1.58
2022-08-18T03:58:16.340Z,1.80
2022-08-18T04:00:44.116Z,2.20
2022-08-18T04:03:13.243Z,1.30
2022-08-18T04:05:41.316Z,1.63
2022-08-18T04:08:09.113Z,1.65
2022-08-18T04:10:37.244Z,2.05
2022-08-18T04:13:06.048Z,2.03
2022-08-18T04:15:34.713Z,1.65
2022-08-18T04:18:04.490Z,2.05
2022-08-18T04:20:33.767Z,1.77
2022-08-18T04:23:02.374Z,1.50
2022-08-18T04:25:33.384Z,1.60
2022-08-18T04:28:03.311Z,2.33
2022-08-18T04:30:31.273Z,1.77
2022-08-18T04:32:59.033Z,1.50
2022-08-18T04:35:29.088Z,1.88
2022-08-18T04:37:58.260Z,1.63
2022-08-18T04:40:27.086Z,2.15
2022-08-18T04:42:54.993Z,2.13
2022-08-18T04:45:22.770Z,1.92
2022-08-18T04:47:51.248Z,1.40
2022-08-18T04:50:19.271Z,2.20
2022-08-18T04:53:04.518Z,1.95
2022-08-18T04:55:33.758Z,1.40
2022-08-18T04:58:01.930Z,1.52
2022-08-18T05:00:29.728Z,1.40
2022-08-18T05:02:57.979Z,1.70
2022-08-18T05:05:27.455Z,2.17
2022-08-18T05:07:55.280Z,1.90
2022-08-18T05:10:23.107Z,1.48
2022-08-18T05:12:52.229Z,2.63
2022-08-18T05:15:20.269Z,1.40
2022-08-18T05:17:50.365Z,1.83
2022-08-18T05:20:19.905Z,1.80
2022-08-18T05:22:47.706Z,2.15
2022-08-18T05:25:16.063Z,1.73
2022-08-18T05:27:44.611Z,2.50
2022-08-18T05:30:15.110Z,2.28
2022-08-18T05:32:49.260Z,2.10
2022-08-18T05:35:26.072Z,1.67
2022-08-18T05:38:19.137Z,1.58
2022-08-18T05:40:47.638Z,1.80
2022-08-18T05:43:18.066Z,2.00
2022-08-18T05:45:51.720Z,2.03
2022-08-18T05:48:20.181Z,2.37
2022-08-18T05:50:48.894Z,1.98
2022-08-18T05:53:20.643Z,2.05
2022-08-18T05:56:21.037Z,1.80
2022-08-18T05:58:55.292Z,1.98
2022-08-18T06:01:33.620Z,1.95
2022-08-18T06:04:07.335Z,2.42
2022-08-18T06:06:38.250Z,2.40
2022-08-18T06:09:17.845Z,2.10
2022-08-18T06:11:45.737Z,2.35
2022-08-18T06:14:14.325Z,2.42
2022-08-18T06:16:58.370Z,2.15
2022-08-18T06:19:42.519Z,2.67
2022-08-18T06:22:30.522Z,2.42
2022-08-18T06:25:12.822Z,2.35
2022-08-18T06:27:58.573Z,2.90
2022-08-18T06:30:46.738Z,2.45
2022-08-18T06:33:46.655Z,2.38
2022-08-18T06:36:33.588Z,2.53
2022-08-18T06:39:09.283Z,2.50
2022-08-18T06:41:43.857Z,2.45
2022-08-18T06:44:20.674Z,2.60
2022-08-18T06:46:56.967Z,1.92
2022-08-18T06:49:43.044Z,2.45
2022-08-18T06:52:30.008Z,2.50
2022-08-18T06:55:00.491Z,3.08
2022-08-18T06:57:34.475Z,2.38
2022-08-18T07:00:11.318Z,2.47
2022-08-18T07:02:49.829Z,2.63
2022-08-18T07:05:24.646Z,2.15
2022-08-18T07:08:18.788Z,2.03
2022-08-18T07:10:50.741Z,2.53
2022-08-18T07:13:26.673Z,2.50
2022-08-18T07:16:16.725Z,2.20
2022-08-18T07:18:46.563Z,3.22
2022-08-18T07:21:29.595Z,3.03
2022-08-18T07:24:24.440Z,2.55
2022-08-18T07:29:33.403Z,2.80
2022-08-18T07:32:20.995Z,3.20
2022-08-18T07:34:58.269Z,2.88
2022-08-18T07:37:33.466Z,3.10
2022-08-18T07:40:11.466Z,3.22
2022-08-18T07:42:56.855Z,3.10
2022-08-18T07:45:36.999Z,3.00
2022-08-18T07:51:17.212Z,2.80
2022-08-18T07:53:57.469Z,3.05
2022-08-18T07:56:39.710Z,2.65
2022-08-18T07:59:22.034Z,2.42
2022-08-18T08:01:59.031Z,2.70
2022-08-18T08:04:40.563Z,2.38
2022-08-18T08:07:30.792Z,2.42
2022-08-18T08:10:22.369Z,2.75
2022-08-18T08:13:09.323Z,2.42
2022-08-18T08:15:54.489Z,2.67
2022-08-18T08:21:10.795Z,2.95
2022-08-18T08:23:53.065Z,3.60
2022-08-18T08:26:52.524Z,2.45
2022-08-18T08:29:38.744Z,2.55
2022-08-18T08:32:13.069Z,2.47
2022-08-18T08:37:21.206Z,2.15
2022-08-18T08:39:58.373Z,2.47
2022-08-18T08:42:40.985Z,2.08
2022-08-18T08:45:16.847Z,2.17
2022-08-18T08:48:06.642Z,2.35
2022-08-18T08:50:42.466Z,2.35
2022-08-18T08:53:22.883Z,2.42
2022-08-18T08:56:00.101Z,2.33
2022-08-18T08:58:38.529Z,2.53
2022-08-18T09:01:11.153Z,2.70
2022-08-18T09:03:50.069Z,2.53
2022-08-18T09:06:34.902Z,2.22
2022-08-18T09:09:33.885Z,2.28
2022-08-18T09:12:34.490Z,2.30
2022-08-18T09:15:28.266Z,2.15
2022-08-18T09:18:19.542Z,2.15
2022-08-18T09:21:00.521Z,1.95
2022-08-18T09:23:35.064Z,1.83
2022-08-18T09:26:28.237Z,1.88
2022-08-18T09:29:11.518Z,1.58
2022-08-18T09:31:43.593Z,1.80
2022-08-18T09:34:41.293Z,1.67
2022-08-18T09:37:24.284Z,1.80
2022-08-18T09:40:51.422Z,2.10
2022-08-18T09:43:24.696Z,1.88
2022-08-18T09:45:58.079Z,2.17
2022-08-18T09:48:33.963Z,1.65
2022-08-18T09:51:34.577Z,1.80
2022-08-18T09:54:20.975Z,1.88
2022-08-18T09:57:20.688Z,2.28
2022-08-18T10:00:28.065Z,1.67
2022-08-18T10:03:25.452Z,2.00
2022-08-18T10:06:20.602Z,1.65
2022-08-18T10:12:49.130Z,2.25
2022-08-18T10:15:49.290Z,1.80
2022-08-18T10:18:37.528Z,1.88
2022-08-18T10:21:17.365Z,1.80
2022-08-18T10:24:29.343Z,1.30
2022-08-18T10:27:37.116Z,1.55
2022-08-18T10:30:07.126Z,2.17
2022-08-18T10:35:58.728Z,2.17
2022-08-18T10:38:49.732Z,1.50
2022-08-18T10:41:30.868Z,1.90
2022-08-18T10:44:10.597Z,2.05
2022-08-18T10:46:48.953Z,2.13
2022-08-18T10:49:25.966Z,2.13
2022-08-18T10:52:35.706Z,2.28
2022-08-18T10:55:22.375Z,2.00
2022-08-18T10:58:28.146Z,2.20
2022-08-18T11:01:14.654Z,1.80
2022-08-18T11:04:22.607Z,2.03
2022-08-18T11:07:08.455Z,2.63
2022-08-18T11:09:41.707Z,2.55
2022-08-18T11:12:14.399Z,2.40
2022-08-18T11:18:30.339Z,2.70
2022-08-18T11:21:33.069Z,2.13
2022-08-18T11:24:10.010Z,2.45
2022-08-18T11:26:42.791Z,2.40
2022-08-18T11:29:28.227Z,1.95
2022-08-18T11:32:02.144Z,2.00
2022-08-18T11:34:45.517Z,2.58
2022-08-18T11:37:48.710Z,2.13
2022-08-18T11:43:41.539Z,2.40
2022-08-18T11:46:29.681Z,2.15
2022-08-18T11:49:02.105Z,2.05
2022-08-18T11:51:35.247Z,2.92
2022-08-18T11:57:40.894Z,2.47
2022-08-18T12:00:42.503Z,2.13
2022-08-18T12:03:24.031Z,2.80
2022-08-18T12:05:57.367Z,2.45
2022-08-18T12:11:29.798Z,2.10
2022-08-18T12:14:31.360Z,2.35
2022-08-18T12:16:54.337Z,2.00
2022-08-18T12:19:24.198Z,2.00
2022-08-18T12:21:57.897Z,2.05
2022-08-18T12:24:36.498Z,2.00
2022-08-18T12:27:20.899Z,2.50
2022-08-18T12:29:52.798Z,2.20
2022-08-18T12:32:41.795Z,2.03
2022-08-18T12:35:13.555Z,2.20
2022-08-18T12:38:12.285Z,1.90
2022-08-18T12:40:33.422Z,1.95
2022-08-18T12:43:01.187Z,2.00
2022-08-18T12:45:32.239Z,2.10
2022-08-18T12:48:04.067Z,2.63
2022-08-18T12:50:36.160Z,2.05
2022-08-18T12:53:07.435Z,2.05
2022-08-18T12:55:43.608Z,1.95
2022-08-18T12:58:13.816Z,1.90
2022-08-18T13:00:44.438Z,1.85
2022-08-18T13:03:12.276Z,1.85
2022-08-18T13:05:40.151Z,2.20
2022-08-18T13:08:27.601Z,2.50
2022-08-18T13:11:14.817Z,2.28
2022-08-18T13:13:53.121Z,2.22
2022-08-18T13:16:54.637Z,1.75
2022-08-18T13:19:22.945Z,2.25
2022-08-18T13:21:51.898Z,1.88
2022-08-18T13:24:21.090Z,1.88
2022-08-18T13:26:51.690Z,2.30
2022-08-18T13:29:21.014Z,1.92
2022-08-18T13:31:55.912Z,2.00
2022-08-18T13:34:29.796Z,2.08
2022-08-18T13:36:58.248Z,2.15
2022-08-18T13:39:33.922Z,1.90
2022-08-18T13:42:28.397Z,2.10
2022-08-18T13:44:52.993Z,2.17
2022-08-18T13:47:23.367Z,1.75
2022-08-18T13:49:58.871Z,2.25
2022-08-18T13:52:34.696Z,1.83
2022-08-18T13:55:08.261Z,1.80
2022-08-18T13:57:37.310Z,2.15
2022-08-18T14:00:17.987Z,1.88
2022-08-18T14:02:52.268Z,2.28
2022-08-18T14:05:22.503Z,2.03
2022-08-18T14:08:10.435Z,1.67
2022-08-18T14:10:38.605Z,1.70
2022-08-18T14:13:20.918Z,1.83
2022-08-18T14:15:54.688Z,2.00
2022-08-18T14:18:28.599Z,2.15
2022-08-18T14:24:02.636Z,1.70
2022-08-18T14:26:50.013Z,2.08
2022-08-18T14:29:45.776Z,1.40
2022-08-18T14:32:08.602Z,1.92
2022-08-18T14:34:42.425Z,1.73
2022-08-18T14:37:19.421Z,2.33
2022-08-18T14:39:50.438Z,2.25
2022-08-18T14:42:41.491Z,2.70
2022-08-18T14:45:26.532Z,1.73
2022-08-18T14:47:59.690Z,2.42
2022-08-18T14:50:29.410Z,2.10
2022-08-18T14:52:59.065Z,2.40
2022-08-18T14:55:27.506Z,2.20
2022-08-18T14:57:59.211Z,2.33
2022-08-18T15:00:29.745Z,2.60
2022-08-18T15:02:59.554Z,2.55
2022-08-18T15:05:33.942Z,2.15
2022-08-18T15:08:04.710Z,2.35
2022-08-18T15:10:33.887Z,2.50
2022-08-18T15:13:01.972Z,2.28
2022-08-18T15:15:50.919Z,1.98
2022-08-18T15:18:22.334Z,2.25
2022-08-18T15:21:10.306Z,2.20
2022-08-18T15:24:05.410Z,2.10
2022-08-18T15:26:47.833Z,2.30
2022-08-18T15:29:22.671Z,2.33
2022-08-18T15:31:59.817Z,2.05
2022-08-18T15:37:09.964Z,2.50
2022-08-18T15:39:37.904Z,1.83
2022-08-18T15:42:13.533Z,1.92
2022-08-18T15:44:44.776Z,2.33
2022-08-18T15:47:12.601Z,1.85
2022-08-18T15:49:40.384Z,1.90
2022-08-18T15:52:13.023Z,2.47
2022-08-18T15:54:42.291Z,2.42
2022-08-18T15:57:23.665Z,2.05
2022-08-18T15:59:59.575Z,1.95
2022-08-18T16:02:27.537Z,2.13
2022-08-18T16:04:55.461Z,2.08
2022-08-18T16:07:39.950Z,2.08
2022-08-18T16:10:10.719Z,2.20
2022-08-18T16:12:38.672Z,2.47
2022-08-18T16:15:15.363Z,2.28
2022-08-18T16:17:47.847Z,2.00
2022-08-18T16:20:16.124Z,2.20
2022-08-18T16:22:45.620Z,2.22
2022-08-18T16:25:13.536Z,2.42
2022-08-18T16:27:42.762Z,2.63
2022-08-18T16:30:14.345Z,2.40
2022-08-18T16:32:42.402Z,1.90
2022-08-18T16:35:11.031Z,2.13
2022-08-18T16:37:39.149Z,2.60
2022-08-18T16:40:09.969Z,2.30
2022-08-18T16:42:38.154Z,1.90
2022-08-18T16:45:08.824Z,1.80
2022-08-18T16:47:38.909Z,1.95
2022-08-18T16:50:09.054Z,1.83
2022-08-18T16:52:37.380Z,1.83
2022-08-18T16:55:10.193Z,1.83
2022-08-18T16:57:57.482Z,1.70
2022-08-18T17:00:44.057Z,1.65
2022-08-18T17:03:30.158Z,1.77
2022-08-18T17:06:02.129Z,1.60
2022-08-18T17:08:34.033Z,1.48
2022-08-18T17:11:04.997Z,1.30
2022-08-18T17:13:34.081Z,1.67
2022-08-18T17:16:02.505Z,1.00
2022-08-18T17:18:30.694Z,1.85
2022-08-18T17:21:02.661Z,1.67
2022-08-18T17:23:30.736Z,1.38
2022-08-18T17:26:00.068Z,1.13
2022-08-18T17:28:47.990Z,1.63
2022-08-18T17:31:21.241Z,1.38
2022-08-18T17:33:49.420Z,1.67
2022-08-18T17:36:29.253Z,1.50
2022-08-18T17:39:00.616Z,2.67
2022-08-18T17:41:29.136Z,1.38
2022-08-18T17:44:01.860Z,2.05
2022-08-18T17:46:40.965Z,1.27
2022-08-18T17:49:18.747Z,1.52
2022-08-18T17:51:52.495Z,1.48
2022-08-18T17:54:38.050Z,1.23
2022-08-18T17:57:14.044Z,1.00
2022-08-18T17:59:53.102Z,1.58
2022-08-18T18:02:29.909Z,1.58
2022-08-18T18:04:59.189Z,1.80
2022-08-18T18:07:31.428Z,1.27
2022-08-18T18:10:04.386Z,1.80
2022-08-18T18:12:35.812Z,2.03
2022-08-18T18:15:11.716Z,1.35
2022-08-18T18:17:43.113Z,2.10
2022-08-18T18:20:30.140Z,1.73
2022-08-18T18:23:19.110Z,1.48
2022-08-18T18:25:47.556Z,1.35
2022-08-18T18:28:28.602Z,1.40
2022-08-18T18:30:59.548Z,1.60
2022-08-18T18:33:31.374Z,1.80
2022-08-18T18:36:00.507Z,1.67
2022-08-18T18:38:33.028Z,1.52
2022-08-18T18:41:05.664Z,1.83
2022-08-18T18:43:39.041Z,1.27
2022-08-18T18:46:31.893Z,1.70
2022-08-18T18:49:18.772Z,1.73
2022-08-18T18:52:07.048Z,1.42
2022-08-18T18:55:02.367Z,1.95
2022-08-18T18:57:45.860Z,1.55
2022-08-18T19:00:20.904Z,1.75
2022-08-18T19:03:08.902Z,1.80
2022-08-18T19:05:47.895Z,1.70
2022-08-18T19:08:33.126Z,1.80
2022-08-18T19:11:10.757Z,2.08
2022-08-18T19:13:49.453Z,2.10
2022-08-18T19:16:30.102Z,2.17
2022-08-18T19:19:37.773Z,1.92
2022-08-18T19:22:06.752Z,1.67
2022-08-18T19:24:45.652Z,1.80
2022-08-18T19:27:26.223Z,2.03
2022-08-18T19:29:59.991Z,2.10
2022-08-18T19:32:39.480Z,1.80
2022-08-18T19:35:14.810Z,1.70
2022-08-18T19:38:04.507Z,2.47
2022-08-18T19:40:47.468Z,2.20
2022-08-18T19:43:26.563Z,2.15
2022-08-18T19:46:05.554Z,2.08
2022-08-18T19:48:51.301Z,2.60
2022-08-18T19:51:32.500Z,2.20
2022-08-18T19:54:24.946Z,2.00
2022-08-18T19:57:13.529Z,1.95
2022-08-18T20:00:12.942Z,1.55
2022-08-18T20:03:23.465Z,1.45
2022-08-18T20:06:33.448Z,1.77
2022-08-18T20:09:29.815Z,2.15
2022-08-18T20:12:14.373Z,2.13
2022-08-18T20:14:43.558Z,1.65
2022-08-18T20:17:23.497Z,1.60
2022-08-18T20:20:16.380Z,1.83
2022-08-18T20:22:46.758Z,1.27
2022-08-18T20:25:43.289Z,1.38
2022-08-18T20:28:33.121Z,2.20
2022-08-18T20:31:13.586Z,2.30
2022-08-18T20:33:47.474Z,1.55
2022-08-18T20:36:29.364Z,1.92
2022-08-18T20:39:00.702Z,2.00
2022-08-18T20:41:45.240Z,1.58
2022-08-18T20:44:58.552Z,2.03
2022-08-18T20:47:46.650Z,1.85
2022-08-18T20:50:50.898Z,1.33
2022-08-18T20:53:58.480Z,2.40
2022-08-18T20:56:43.921Z,2.22
2022-08-18T20:59:20.049Z,1.83
2022-08-18T21:01:57.618Z,1.88
2022-08-18T21:04:49.459Z,2.00
2022-08-18T21:07:36.355Z,2.25
2022-08-18T21:10:14.492Z,2.25
2022-08-18T21:12:53.460Z,2.00
2022-08-18T21:15:24.847Z,2.10
2022-08-18T21:18:05.229Z,2.35
2022-08-18T21:20:35.442Z,2.13
2022-08-18T21:23:11.577Z,2.35
2022-08-18T21:25:50.281Z,2.38
2022-08-18T21:28:21.439Z,2.50
2022-08-18T21:31:42.965Z,2.40
2022-08-18T21:33:52.399Z,2.20
2022-08-18T21:36:25.305Z,2.20
2022-08-18T21:39:03.451Z,2.38
2022-08-18T21:41:40.061Z,2.40
2022-08-18T21:44:16.524Z,2.70
2022-08-18T21:46:47.206Z,2.05
2022-08-18T21:49:26.511Z,2.70
2022-08-18T21:51:57.160Z,2.15
2022-08-18T21:54:34.602Z,2.35
2022-08-18T21:57:25.140Z,2.38
2022-08-18T22:00:18.783Z,2.28
2022-08-18T22:02:51.870Z,2.22
2022-08-18T22:05:57.968Z,2.00
2022-08-18T22:08:24.442Z,1.75
2022-08-18T22:12:00.553Z,1.63
2022-08-18T22:14:55.022Z,1.80
2022-08-18T22:17:33.691Z,1.92
2022-08-18T22:20:47.047Z,2.10
2022-08-18T22:23:55.946Z,1.80
2022-08-18T22:26:28.960Z,2.13
2022-08-18T22:29:05.105Z,2.30
2022-08-18T22:31:36.568Z,1.80
2022-08-18T22:34:08.907Z,1.65
2022-08-18T22:36:40.738Z,2.22
2022-08-18T22:39:13.311Z,1.85
2022-08-18T22:41:46.111Z,2.03
2022-08-18T22:44:14.040Z,1.27
2022-08-18T22:46:42.552Z,2.40
2022-08-18T22:49:11.863Z,2.10
2022-08-18T22:51:40.075Z,2.05
2022-08-18T22:54:10.823Z,1.88
2022-08-18T22:56:39.385Z,2.05
2022-08-18T22:59:21.953Z,1.92
2022-08-18T23:01:52.173Z,2.15
2022-08-18T23:04:24.534Z,2.08
2022-08-18T23:06:53.589Z,2.45
2022-08-18T23:09:25.488Z,2.03
2022-08-18T23:11:57.817Z,2.25
2022-08-18T23:14:25.840Z,2.03
2022-08-18T23:16:53.923Z,2.30
2022-08-18T23:19:23.009Z,1.80
2022-08-18T23:21:52.146Z,1.90
2022-08-18T23:24:22.519Z,1.80
2022-08-18T23:26:50.720Z,2.30
2022-08-18T23:29:20.692Z,2.00
2022-08-18T23:31:51.318Z,2.30
2022-08-18T23:34:24.355Z,2.05
2022-08-18T23:36:58.430Z,2.17
2022-08-18T23:39:27.387Z,2.47
2022-08-18T23:41:55.677Z,2.45
2022-08-18T23:44:27.857Z,2.72
2022-08-18T23:46:56.585Z,2.67
2022-08-18T23:49:26.182Z,2.42
2022-08-18T23:51:55.925Z,2.65
2022-08-18T23:54:31.539Z,2.60
2022-08-18T23:56:59.598Z,2.33
2022-08-18T23:59:29.564Z,2.35
